Πλησιέστερες Αναφορές METAR

 

LGTS - Thessaloniki/Makedonia-Elev 7m
Απόσταση από σταθμό: Ν 13km
Ενημερώθηκε: 19/08/2022 23:20
Αίθριος
Αίθριος
 Ανεμοι από ΑΝΑ
Ανεμος: ΑΝΑ 9 km/h
Θερμοκρασία: 27°C
Δείκτης Δυσφορίας: 28°C
Σημείο Δρόσου: 18°C
Υγρασία: 58%
Βαρόμετρο: 1009 hPa
Περίληψη: Αίθριος
Ορατότητα: πάνω από 10 km
2022/08/19 20:20 LGTS 192020Z 11005KT CAVOK 27/18 Q1009 NOSIG
LGAV - Athens/Elef. Venizelos-Elev 94m
Απόσταση από σταθμό: ΝΝΑ 312km
Ενημερώθηκε: 19/08/2022 23:20
Αίθριος
Αίθριος
 Ανεμοι από μεταβλητός
Ανεμος: μεταβλητός 2 km/h
Θερμοκρασία: 24°C
Σημείο Δρόσου: 15°C
Υγρασία: 57%
Βαρόμετρο: 1010 hPa
Περίληψη: Αίθριος
Ορατότητα: πάνω από 10 km
2022/08/19 20:20 LGAV 192020Z VRB01KT CAVOK 24/15 Q1010 NOSIG
 
LGAL - Alexandroupolis-Elev 3m
Απόσταση από σταθμό: Α 251km
Ενημερώθηκε: 19/08/2022 23:20
Αίθριος
Αίθριος
 Ανεμοι από άπνοια
Ανεμος: άπνοια
Θερμοκρασία: 26°C
Σημείο Δρόσου: 19°C
Υγρασία: 65%
Βαρόμετρο: 1010 hPa
Περίληψη: Αίθριος
Ορατότητα: πάνω από 10 km
2022/08/19 20:20 LGAL 192020Z 00000KT CAVOK 26/19 Q1010
LGKV - Kavala/Crysoupolis-Elev 5m
Απόσταση από σταθμό: ΑΒΑ 144km
Ενημερώθηκε: 19/08/2022 22:50
Αίθριος
Αίθριος
 Ανεμοι από άπνοια
Ανεμος: άπνοια
Θερμοκρασία: 26°C
Σημείο Δρόσου: 22°C
Υγρασία: 79%
Βαρόμετρο: 1009 hPa
Περίληψη: Αίθριος
Ορατότητα: πάνω από 10 km
2022/08/19 19:50 LGKV 191950Z 00000KT CAVOK 26/22 Q1009
 
LGSK - Skiathos Island-Elev 15m
Απόσταση από σταθμό: ΝΝΑ 168km
Ενημερώθηκε: 19/08/2022 22:20
ΜΗ Ενημερωμένο METAR!
Αίθριος
Αίθριος
 Ανεμοι από ΝΔ
Ανεμος: ΝΔ 4 km/h
Θερμοκρασία: 28°C
Δείκτης Δυσφορίας: 30°C
Σημείο Δρόσου: 21°C
Υγρασία: 66%
Βαρόμετρο: 1008 hPa
Περίληψη: Αίθριος
Ορατότητα: πάνω από 10 km
2022/08/19 19:20 LGSK 191920Z 23002KT CAVOK 28/21 Q1008
LGLM - Limnos Island-Elev 5m
Απόσταση από σταθμό: ΑΝΑ 210km
Ενημερώθηκε: 19/08/2022 22:50
Αίθριος
Αίθριος
 Ανεμοι από άπνοια
Ανεμος: άπνοια
Θερμοκρασία: 26°C
Σημείο Δρόσου: 18°C
Υγρασία: 61%
Βαρόμετρο: 1009 hPa
Περίληψη: Αίθριος
Ορατότητα: πάνω από 10 km
2022/08/19 19:50 LGLM 191950Z 00000KT CAVOK 26/18 Q1009
 
LGMT - Mitilini Island-Elev 17m
Απόσταση από σταθμό: ΑΝΑ 358km
Ενημερώθηκε: 19/08/2022 23:20
Αίθριος
Αίθριος
 Ανεμοι από ΒΔ
Ανεμος: ΒΔ 13 km/h
Θερμοκρασία: 28°C
Δείκτης Δυσφορίας: 29°C
Σημείο Δρόσου: 19°C
Υγρασία: 58%
Βαρόμετρο: 1009 hPa
Περίληψη: Αίθριος
Ορατότητα: πάνω από 10 km
2022/08/19 20:20 LGMT 192020Z 32007KT CAVOK 28/19 Q1009
LGSY - Skiros Island-Elev 15m
Απόσταση από σταθμό: ΝΑ 227km
Ενημερώθηκε: 19/08/2022 20:50
ΜΗ Ενημερωμένο METAR!
Αίθριος
Αίθριος
 Ανεμοι από άπνοια
Ανεμος: άπνοια
Θερμοκρασία: 27°C
Δείκτης Δυσφορίας: 30°C
Σημείο Δρόσου: 23°C
Υγρασία: 79%
Βαρόμετρο: 1009 hPa
Περίληψη: Αίθριος
Ορατότητα: πάνω από 10 km
2022/08/19 17:50 LGSY 191750Z 00000KT CAVOK 27/23 Q1009 BLU
 
LGKZ - Kozani-Elev 628m
Απόσταση από σταθμό: ΔΝΔ 102km
Ενημερώθηκε: 19/08/2022 23:20

 Ανεμοι από μεταβλητός
Ανεμος: μεταβλητός 6 km/h
Θερμοκρασία: 24°C
Σημείο Δρόσου: 12°C
Υγρασία: 47%
Βαρόμετρο: 1013 hPa
2022/08/19 20:20 LGKZ 192020Z AUTO VRB03KT //// // ////// 24/12 Q1013 RE//
LGIO - Ioannina-Elev 476m
Απόσταση από σταθμό: ΔΝΔ 209km
Ενημερώθηκε: 19/08/2022 23:20

 Ανεμοι από μεταβλητός
Ανεμος: μεταβλητός 2 km/h
Θερμοκρασία: 24°C
Σημείο Δρόσου: 18°C
Υγρασία: 69%
Βαρόμετρο: 1012 hPa
2022/08/19 20:20 LGIO 192020Z AUTO VRB01KT //// // ////// 24/18 Q1012 RE//
 
LGZA - Zakinthos-Elev 3m
Απόσταση από σταθμό: ΝΝΔ 367km
Ενημερώθηκε: 19/08/2022 22:50
Αίθριος
Αίθριος
 Ανεμοι από ΝΝΑ
Ανεμος: ΝΝΑ 7 km/h
Θερμοκρασία: 28°C
Δείκτης Δυσφορίας: 31°C
Σημείο Δρόσου: 23°C
Υγρασία: 74%
Βαρόμετρο: 1010 hPa
Περίληψη: Αίθριος
Ορατότητα: πάνω από 10 km
2022/08/19 19:50 LGZA 191950Z 15004KT CAVOK 28/23 Q1010
LGKR - Corfu Island-Elev 2m
Απόσταση από σταθμό: ΔΝΔ 282km
Ενημερώθηκε: 19/08/2022 23:20
Διάσπαρτα Νέφη
Διάσπαρτα Νέφη
 Ανεμοι από Δ
Ανεμος: Δ 6 km/h
Θερμοκρασία: 28°C
Δείκτης Δυσφορίας: 31°C
Σημείο Δρόσου: 23°C
Υγρασία: 74%
Βαρόμετρο: 1009 hPa
Νέφωση: Διάσπαρτα Νέφη
Ορατότητα: 10 km
Λεπτομέρειες Νεφών: Διάσπαρτα Νέφη 1067 m
2022/08/19 20:20 LGKR 192020Z 28003KT 9999 FEW035 28/23 Q1009 NOSIG
 
LGSO - Syros Island-Elev 72m
Απόσταση από σταθμό: ΝΝΑ 397km
Ενημερώθηκε: 19/08/2022 23:20

 Ανεμοι από Β
Ανεμος: Β 9 km/h
Θερμοκρασία: 29°C
Δείκτης Δυσφορίας: 29°C
Σημείο Δρόσου: 15°C
Υγρασία: 43%
Βαρόμετρο: 1009 hPa
2022/08/19 20:20 LGSO 192020Z AUTO 35005KT 290V360 //// // ////// 29/15 Q1009 RE//
LGMK - Mikonos Island-Elev 123m
Απόσταση από σταθμό: ΝΝΑ 412km
Ενημερώθηκε: 19/08/2022 23:20
Αίθριος
Αίθριος
 Ανεμοι από Β
Ανεμος: Β 19 km/h
Θερμοκρασία: 28°C
Δείκτης Δυσφορίας: 28°C
Σημείο Δρόσου: 17°C
Υγρασία: 51%
Βαρόμετρο: 1009 hPa
Περίληψη: Αίθριος
Ορατότητα: πάνω από 10 km
2022/08/19 20:20 LGMK 192020Z 01010KT CAVOK 28/17 Q1009
 
LGSR - Santorini Island-Elev 40m
Απόσταση από σταθμό: ΝΝΑ 520km
Ενημερώθηκε: 19/08/2022 23:20
Αίθριος
Αίθριος
 Ανεμοι από ΒΔ
Ανεμος: ΒΔ 13 km/h
Θερμοκρασία: 28°C
Δείκτης Δυσφορίας: 29°C
Σημείο Δρόσου: 18°C
Υγρασία: 55%
Βαρόμετρο: 1008 hPa
Περίληψη: Αίθριος
Ορατότητα: πάνω από 10 km
2022/08/19 20:20 LGSR 192020Z 31007KT CAVOK 28/18 Q1008
LGKL - Kalamata-Elev 8m
Απόσταση από σταθμό: Ν 405km
Ενημερώθηκε: 19/08/2022 23:20
Αίθριος
Αίθριος
 Ανεμοι από άπνοια
Ανεμος: άπνοια
Θερμοκρασία: 25°C
Σημείο Δρόσου: 16°C
Υγρασία: 57%
Βαρόμετρο: 1009 hPa
Περίληψη: Αίθριος
Ορατότητα: πάνω από 10 km
2022/08/19 20:20 LGKL 192020Z 00000KT CAVOK 25/16 Q1009
 
LGIR - Iraklion/Crete-Elev 5m
Απόσταση από σταθμό: ΝΝΑ 622km
Ενημερώθηκε: 19/08/2022 23:20
Αίθριος
Αίθριος
 Ανεμοι από ΔΒΔ
Ανεμος: ΔΒΔ 13 km/h
Θερμοκρασία: 28°C
Δείκτης Δυσφορίας: 30°C
Σημείο Δρόσου: 21°C
Υγρασία: 66%
Βαρόμετρο: 1009 hPa
Περίληψη: Αίθριος
Ορατότητα: πάνω από 10 km
2022/08/19 20:20 LGIR 192020Z 30007KT CAVOK 28/21 Q1009 NOSIG
LGRP - Rhodes-Elev 5m
Απόσταση από σταθμό: ΝΑ 649km
Ενημερώθηκε: 19/08/2022 23:20
Αίθριος
Αίθριος
 Ανεμοι από ΔΝΔ
Ανεμος: ΔΝΔ 15 km/h
Θερμοκρασία: 31°C
Δείκτης Δυσφορίας: 33°C
Σημείο Δρόσου: 20°C
Υγρασία: 52%
Βαρόμετρο: 1003 hPa
Περίληψη: Αίθριος
Ορατότητα: πάνω από 10 km
2022/08/19 20:20 LGRP 192020Z 25008KT CAVOK 31/20 Q1003 NOSIG
 
LWOH - Ohrid/FYROM-Elev 761m
Απόσταση από σταθμό: ΔΒΔ 188km
Ενημερώθηκε: 19/08/2022 23:00
Διάσπαρτα Νέφη
Διάσπαρτα Νέφη
 Ανεμοι από ΒΔ
Ανεμος: ΒΔ 6 km/h
Θερμοκρασία: 21°C
Σημείο Δρόσου: 12°C
Υγρασία: 57%
Βαρόμετρο: 1014 hPa
Νέφωση: Διάσπαρτα Νέφη
Ορατότητα: 10 km
Λεπτομέρειες Νεφών: Διάσπαρτα Νέφη 2743 m
2022/08/19 20:00 LWOH 192000Z 31003KT 9999 FEW090 21/12 Q1014
LBSF - Sofia/Bulgaria-Elev 595m
Απόσταση από σταθμό: Β 227km
Ενημερώθηκε: 19/08/2022 23:30
Αίθριος
Αίθριος
 Ανεμοι από Α
Ανεμος: Α 9 km/h
Θερμοκρασία: 22°C
Σημείο Δρόσου: 15°C
Υγρασία: 65%
Βαρόμετρο: 1013 hPa
Νέφωση: Αίθριος
Ορατότητα: 10 km
2022/08/19 20:30 LBSF 192030Z AUTO 09005KT 9999 NCD 22/15 Q1013 NOSIG